createdAt,value
2023-05-14T00:00:44.050Z,64.06
2023-05-14T00:03:10.829Z,64.11
2023-05-14T00:05:37.670Z,63.90
2023-05-14T00:08:04.789Z,64.51
2023-05-14T00:10:32.626Z,64.12
2023-05-14T00:12:59.278Z,64.27
2023-05-14T00:15:27.261Z,64.59
2023-05-14T00:17:53.923Z,64.11
2023-05-14T00:20:20.688Z,64.41
2023-05-14T00:22:47.397Z,64.76
2023-05-14T00:25:14.057Z,64.84
2023-05-14T00:27:40.682Z,64.84
2023-05-14T00:30:08.098Z,64.84
2023-05-14T00:32:36.174Z,64.65
2023-05-14T00:35:02.822Z,65.11
2023-05-14T00:37:29.465Z,65.34
2023-05-14T00:39:56.110Z,65.27
2023-05-14T00:42:22.749Z,65.79
2023-05-14T00:44:49.336Z,65.39
2023-05-14T00:47:15.999Z,65.61
2023-05-14T00:49:44.071Z,65.84
2023-05-14T00:52:11.750Z,65.56
2023-05-14T00:54:38.776Z,65.46
2023-05-14T00:57:06.590Z,66.11
2023-05-14T00:59:33.339Z,65.85
2023-05-14T01:02:00.232Z,66.24
2023-05-14T01:04:27.111Z,66.10
2023-05-14T01:07:07.639Z,66.16
2023-05-14T01:09:42.326Z,66.68
2023-05-14T01:12:17.248Z,66.40
2023-05-14T01:14:52.318Z,66.43
2023-05-14T01:17:20.451Z,66.43
2023-05-14T01:19:48.301Z,66.91
2023-05-14T01:22:16.308Z,67.30
2023-05-14T01:24:43.175Z,67.20
2023-05-14T01:27:16.547Z,67.02
2023-05-14T01:29:45.163Z,67.17
2023-05-14T01:32:13.471Z,67.16
2023-05-14T01:34:41.048Z,67.37
2023-05-14T01:37:09.979Z,66.86
2023-05-14T01:39:39.179Z,67.14
2023-05-14T01:42:07.645Z,67.40
2023-05-14T01:44:34.628Z,67.19
2023-05-14T01:47:01.206Z,67.89
2023-05-14T01:49:27.907Z,67.27
2023-05-14T01:51:54.473Z,67.60
2023-05-14T01:54:21.166Z,67.15
2023-05-14T01:56:49.172Z,67.06
2023-05-14T01:59:15.820Z,67.13
2023-05-14T02:01:42.449Z,67.55
2023-05-14T02:04:09.128Z,67.47
2023-05-14T02:06:35.832Z,67.26
2023-05-14T02:09:02.597Z,67.49
2023-05-14T02:11:29.395Z,67.27
2023-05-14T02:13:57.412Z,67.81
2023-05-14T02:16:24.090Z,67.81
2023-05-14T02:18:50.876Z,67.97
2023-05-14T02:21:17.456Z,68.02
2023-05-14T02:23:44.079Z,68.62
2023-05-14T02:26:11.267Z,68.61
2023-05-14T02:28:37.917Z,68.58
2023-05-14T02:31:05.969Z,68.77
2023-05-14T02:33:32.821Z,68.75
2023-05-14T02:35:59.478Z,69.24
2023-05-14T02:38:26.713Z,69.54
2023-05-14T02:40:53.419Z,69.09
2023-05-14T02:43:20.010Z,69.31
2023-05-14T02:45:47.154Z,69.49
2023-05-14T02:48:15.304Z,69.75
2023-05-14T02:50:42.027Z,70.26
2023-05-14T02:53:08.680Z,70.37
2023-05-14T02:55:35.538Z,70.18
2023-05-14T02:58:02.165Z,70.15
2023-05-14T03:00:28.875Z,70.48
2023-05-14T03:02:56.144Z,70.23
2023-05-14T03:05:24.654Z,70.51
2023-05-14T03:07:51.853Z,70.47
2023-05-14T03:10:18.536Z,70.23
2023-05-14T03:12:45.294Z,70.37
2023-05-14T03:15:11.931Z,70.13
2023-05-14T03:17:38.602Z,70.07
2023-05-14T03:20:06.444Z,70.13
2023-05-14T03:22:34.546Z,70.17
2023-05-14T03:25:01.201Z,70.19
2023-05-14T03:27:27.836Z,70.62
2023-05-14T03:29:54.511Z,71.01
2023-05-14T03:32:21.315Z,70.95
2023-05-14T03:34:48.063Z,70.32
2023-05-14T03:37:14.746Z,70.29
2023-05-14T03:39:42.750Z,70.14
2023-05-14T03:42:09.405Z,69.85
2023-05-14T03:44:36.027Z,69.79
2023-05-14T03:47:02.786Z,69.80
2023-05-14T03:49:29.407Z,69.58
2023-05-14T03:51:56.140Z,70.51
2023-05-14T03:54:22.802Z,70.89
2023-05-14T03:56:51.357Z,71.11
2023-05-14T03:59:18.264Z,70.91
2023-05-14T04:01:44.992Z,71.15
2023-05-14T04:04:11.889Z,71.52
2023-05-14T04:06:38.941Z,71.75
2023-05-14T04:09:05.525Z,71.49
2023-05-14T04:11:32.183Z,71.81
2023-05-14T04:14:00.172Z,71.02
2023-05-14T04:16:26.823Z,71.42
2023-05-14T04:18:53.408Z,71.40
2023-05-14T04:21:20.142Z,71.23
2023-05-14T04:23:46.765Z,71.57
2023-05-14T04:26:13.709Z,71.70
2023-05-14T04:28:40.280Z,71.99
2023-05-14T04:31:08.318Z,68.10
2023-05-14T04:33:34.952Z,64.61
2023-05-14T04:36:01.633Z,61.76
2023-05-14T04:38:28.333Z,59.95
2023-05-14T04:40:54.921Z,59.34
2023-05-14T04:43:21.592Z,59.72
2023-05-14T04:45:48.238Z,57.63
2023-05-14T04:48:16.417Z,57.67
2023-05-14T04:50:43.218Z,56.35
2023-05-14T04:53:10.030Z,55.19
2023-05-14T04:55:36.936Z,55.32
2023-05-14T04:58:03.640Z,54.41
2023-05-14T05:00:30.213Z,54.55
2023-05-14T05:02:56.986Z,54.35
2023-05-14T05:05:25.069Z,53.30
2023-05-14T05:07:51.786Z,53.54
2023-05-14T05:10:18.429Z,52.93
2023-05-14T05:12:45.223Z,53.56
2023-05-14T05:15:11.928Z,53.19
2023-05-14T05:17:38.572Z,52.50
2023-05-14T05:20:06.588Z,53.02
2023-05-14T05:22:34.574Z,52.95
2023-05-14T05:25:01.157Z,52.60
2023-05-14T05:27:27.822Z,52.94
2023-05-14T05:29:54.423Z,52.25
2023-05-14T05:32:21.121Z,51.68
2023-05-14T05:34:47.836Z,51.05
2023-05-14T05:37:14.502Z,50.66
2023-05-14T05:39:42.455Z,49.79
2023-05-14T05:42:09.178Z,49.89
2023-05-14T05:44:35.810Z,50.47
2023-05-14T05:47:02.630Z,50.21
2023-05-14T05:49:29.404Z,49.57
2023-05-14T05:51:56.115Z,49.58
2023-05-14T05:54:23.646Z,49.21
2023-05-14T05:56:52.195Z,48.49
2023-05-14T05:59:18.873Z,48.40
2023-05-14T06:01:45.864Z,48.54
2023-05-14T06:04:12.472Z,50.17
2023-05-14T06:06:39.120Z,49.26
2023-05-14T06:09:05.758Z,47.39
2023-05-14T06:11:32.508Z,46.78
2023-05-14T06:14:00.583Z,50.14
2023-05-14T06:16:27.341Z,45.70
2023-05-14T06:18:54.249Z,48.07
2023-05-14T06:21:20.904Z,45.67
2023-05-14T06:23:47.638Z,46.19
2023-05-14T06:26:14.264Z,44.44
2023-05-14T06:28:40.888Z,45.18
2023-05-14T06:31:08.840Z,45.07
2023-05-14T06:33:35.502Z,43.47
2023-05-14T06:36:04.722Z,42.84
2023-05-14T06:38:31.813Z,43.47
2023-05-14T06:40:58.476Z,42.70
2023-05-14T06:43:25.205Z,42.09
2023-05-14T06:45:52.217Z,45.03
2023-05-14T06:48:21.462Z,43.12
2023-05-14T06:50:49.425Z,43.84
2023-05-14T06:53:16.035Z,41.47
2023-05-14T06:55:42.701Z,42.07
2023-05-14T06:58:09.729Z,42.21
2023-05-14T07:00:36.487Z,41.99
2023-05-14T07:03:03.301Z,42.00
2023-05-14T07:05:31.385Z,41.25
2023-05-14T07:07:58.348Z,40.68
2023-05-14T07:10:25.199Z,40.64
2023-05-14T07:12:52.107Z,41.76
2023-05-14T07:15:18.888Z,41.35
2023-05-14T07:17:45.656Z,40.71
2023-05-14T07:20:13.233Z,41.00
2023-05-14T07:22:41.232Z,41.29
2023-05-14T07:25:08.773Z,42.28
2023-05-14T07:27:35.375Z,41.20
2023-05-14T07:30:02.145Z,41.52
2023-05-14T07:32:28.942Z,41.05
2023-05-14T07:34:55.637Z,41.57
2023-05-14T07:37:23.715Z,41.57
2023-05-14T07:39:52.559Z,41.52
2023-05-14T07:42:31.729Z,42.54
2023-05-14T07:45:01.821Z,41.03
2023-05-14T07:47:29.626Z,40.90
2023-05-14T07:49:56.452Z,40.74
2023-05-14T07:52:23.136Z,41.71
2023-05-14T07:54:52.150Z,40.57
2023-05-14T07:57:19.271Z,41.59
2023-05-14T07:59:45.895Z,40.80
2023-05-14T08:02:12.820Z,41.40
2023-05-14T08:04:39.732Z,42.68
2023-05-14T08:07:06.536Z,42.54
2023-05-14T08:09:33.193Z,40.64
2023-05-14T08:12:01.167Z,38.23
2023-05-14T08:14:27.818Z,39.89
2023-05-14T08:16:54.622Z,39.00
2023-05-14T08:19:21.395Z,39.88
2023-05-14T08:21:48.070Z,40.02
2023-05-14T08:24:14.627Z,40.16
2023-05-14T08:26:41.272Z,40.64
2023-05-14T08:29:10.640Z,37.39
2023-05-14T08:31:38.431Z,38.71
2023-05-14T08:34:05.064Z,38.64
2023-05-14T08:36:31.930Z,38.70
2023-05-14T08:38:58.758Z,37.23
2023-05-14T08:41:25.564Z,37.67
2023-05-14T08:44:03.161Z,36.70
2023-05-14T08:46:32.900Z,37.00
2023-05-14T08:49:08.377Z,37.39
2023-05-14T08:51:35.715Z,37.74
2023-05-14T08:54:03.133Z,37.90
2023-05-14T08:56:32.783Z,36.57
2023-05-14T08:58:59.538Z,35.70
2023-05-14T09:01:26.651Z,36.97
2023-05-14T09:03:55.056Z,37.00
2023-05-14T09:06:22.558Z,37.14
2023-05-14T09:08:49.569Z,37.21
2023-05-14T09:11:16.304Z,35.36
2023-05-14T09:13:42.905Z,35.06
2023-05-14T09:16:09.647Z,34.28
2023-05-14T09:18:36.764Z,34.48
2023-05-14T09:21:04.997Z,35.00
2023-05-14T09:23:32.745Z,32.66
2023-05-14T09:25:59.393Z,33.21
2023-05-14T09:28:26.053Z,33.87
2023-05-14T09:30:52.762Z,34.31
2023-05-14T09:33:26.374Z,34.62
2023-05-14T09:35:57.648Z,33.41
2023-05-14T09:38:29.449Z,33.36
2023-05-14T09:40:56.069Z,32.26
2023-05-14T09:43:22.735Z,33.47
2023-05-14T09:45:49.344Z,33.57
2023-05-14T09:48:16.094Z,32.40
2023-05-14T09:50:43.342Z,34.91
2023-05-14T09:53:10.233Z,33.03
2023-05-14T09:55:38.847Z,32.62
2023-05-14T09:58:05.927Z,32.24
2023-05-14T10:00:34.153Z,32.48
2023-05-14T10:03:05.467Z,31.75
2023-05-14T10:05:34.952Z,32.40
2023-05-14T10:08:05.668Z,31.02
2023-05-14T10:10:35.370Z,31.66
2023-05-14T10:13:05.484Z,30.68
2023-05-14T10:15:37.051Z,31.72
2023-05-14T10:18:13.013Z,31.20
2023-05-14T10:20:40.800Z,31.67
2023-05-14T10:23:07.531Z,32.56
2023-05-14T10:25:34.726Z,32.10
2023-05-14T10:28:03.364Z,32.32
2023-05-14T10:30:29.997Z,32.62
2023-05-14T10:33:06.888Z,33.70
2023-05-14T10:35:50.910Z,33.47
2023-05-14T10:38:17.828Z,33.31
2023-05-14T10:40:44.527Z,34.35
2023-05-14T10:43:13.598Z,34.58
2023-05-14T10:45:40.321Z,34.10
2023-05-14T10:48:07.105Z,33.89
2023-05-14T10:50:34.659Z,34.16
2023-05-14T10:53:01.205Z,34.96
2023-05-14T10:55:27.905Z,35.39
2023-05-14T10:57:54.699Z,35.97
2023-05-14T11:00:26.347Z,35.32
2023-05-14T11:02:56.432Z,35.25
2023-05-14T11:05:23.360Z,35.06
2023-05-14T11:07:51.157Z,35.76
2023-05-14T11:10:19.225Z,35.85
2023-05-14T11:12:47.702Z,36.36
2023-05-14T11:15:16.512Z,35.87
2023-05-14T11:17:45.755Z,35.91
2023-05-14T11:20:13.093Z,36.05
2023-05-14T11:22:41.661Z,36.44
2023-05-14T11:25:09.512Z,36.80
2023-05-14T11:27:38.250Z,37.28
2023-05-14T11:30:06.038Z,36.92
2023-05-14T11:32:33.478Z,37.04
2023-05-14T11:35:01.551Z,39.26
2023-05-14T11:37:28.199Z,38.46
2023-05-14T11:39:59.256Z,40.27
2023-05-14T11:42:29.981Z,38.06
2023-05-14T11:44:56.620Z,38.63
2023-05-14T11:47:23.272Z,38.64
2023-05-14T11:49:49.976Z,39.24
2023-05-14T11:52:18.012Z,39.08
2023-05-14T11:54:45.468Z,39.57
2023-05-14T11:57:14.509Z,38.77
2023-05-14T11:59:42.012Z,40.06
2023-05-14T12:02:10.414Z,39.13
2023-05-14T12:04:37.350Z,38.53
2023-05-14T12:07:09.327Z,37.62
2023-05-14T12:09:39.302Z,41.46
2023-05-14T12:12:10.507Z,38.75
2023-05-14T12:14:38.121Z,38.98
2023-05-14T12:17:11.826Z,40.84
2023-05-14T12:19:40.666Z,37.90
2023-05-14T12:22:08.097Z,39.69
2023-05-14T12:24:34.724Z,39.05
2023-05-14T12:27:03.651Z,37.40
2023-05-14T12:29:30.393Z,36.99
2023-05-14T12:31:58.090Z,40.63
2023-05-14T12:34:24.855Z,39.57
2023-05-14T12:36:51.560Z,38.26
2023-05-14T12:39:18.112Z,38.70
2023-05-14T12:41:44.724Z,38.47
2023-05-14T12:44:12.717Z,37.94
2023-05-14T12:46:39.388Z,39.24
2023-05-14T12:49:06.035Z,38.96
2023-05-14T12:51:32.748Z,39.04
2023-05-14T12:53:59.351Z,37.32
2023-05-14T12:56:26.004Z,36.67
2023-05-14T12:58:52.704Z,37.36
2023-05-14T13:01:20.745Z,36.64
2023-05-14T13:03:47.400Z,38.09
2023-05-14T13:06:14.215Z,36.08
2023-05-14T13:08:42.605Z,36.12
2023-05-14T13:11:09.415Z,35.97
2023-05-14T13:13:36.106Z,37.89
2023-05-14T13:16:03.427Z,35.49
2023-05-14T13:18:31.512Z,35.29
2023-05-14T13:20:58.351Z,35.02
2023-05-14T13:23:24.997Z,36.21
2023-05-14T13:25:51.574Z,35.42
2023-05-14T13:28:18.182Z,35.76
2023-05-14T13:31:04.096Z,34.57
2023-05-14T13:33:32.862Z,35.75
2023-05-14T13:35:59.789Z,35.31
2023-05-14T13:38:26.664Z,34.82
2023-05-14T13:40:53.318Z,34.86
2023-05-14T13:43:20.268Z,34.13
2023-05-14T13:45:47.030Z,34.34
2023-05-14T13:48:13.720Z,34.82
2023-05-14T13:50:41.773Z,34.73
2023-05-14T13:53:08.436Z,34.48
2023-05-14T13:55:35.015Z,33.28
2023-05-14T13:58:02.439Z,35.35
2023-05-14T14:00:29.114Z,34.25
2023-05-14T14:02:55.833Z,35.60
2023-05-14T14:05:22.777Z,37.78
2023-05-14T14:07:52.935Z,38.25
2023-05-14T14:10:21.539Z,38.07
2023-05-14T14:12:48.400Z,36.93
2023-05-14T14:15:15.403Z,37.20
2023-05-14T14:17:42.077Z,36.89
2023-05-14T14:20:09.706Z,36.78
2023-05-14T14:22:36.985Z,36.02
2023-05-14T14:25:05.650Z,35.54
2023-05-14T14:27:32.329Z,37.43
2023-05-14T14:29:58.981Z,35.97
2023-05-14T14:32:25.636Z,35.44
2023-05-14T14:34:52.429Z,36.69
2023-05-14T14:37:20.614Z,34.69
2023-05-14T14:39:47.896Z,35.08
2023-05-14T14:42:15.911Z,33.87
2023-05-14T14:44:42.740Z,37.32
2023-05-14T14:47:09.453Z,36.58
2023-05-14T14:49:36.127Z,35.54
2023-05-14T14:52:02.805Z,35.98
2023-05-14T14:54:29.535Z,35.78
2023-05-14T14:56:56.192Z,36.90
2023-05-14T14:59:24.221Z,35.72
2023-05-14T15:01:50.933Z,35.15
2023-05-14T15:04:17.534Z,36.12
2023-05-14T15:06:44.172Z,36.30
2023-05-14T15:09:10.785Z,34.92
2023-05-14T15:11:37.763Z,35.87
2023-05-14T15:14:04.638Z,35.04
2023-05-14T15:16:32.648Z,35.57
2023-05-14T15:18:59.397Z,36.16
2023-05-14T15:21:26.191Z,34.74
2023-05-14T15:23:52.787Z,34.16
2023-05-14T15:26:19.403Z,35.63
2023-05-14T15:28:45.963Z,34.93
2023-05-14T15:31:12.748Z,34.19
2023-05-14T15:33:40.754Z,35.51
2023-05-14T15:36:08.371Z,34.74
2023-05-14T15:38:35.235Z,35.16
2023-05-14T15:41:01.915Z,34.51
2023-05-14T15:43:28.480Z,34.00
2023-05-14T15:45:55.178Z,34.63
2023-05-14T15:48:21.810Z,34.93
2023-05-14T15:50:49.987Z,35.21
2023-05-14T15:53:16.632Z,35.09
2023-05-14T15:55:43.320Z,35.09
2023-05-14T15:58:10.015Z,35.24
2023-05-14T16:00:36.673Z,35.03
2023-05-14T16:03:03.485Z,34.97
2023-05-14T16:05:30.162Z,35.57
2023-05-14T16:07:58.616Z,35.71
2023-05-14T16:10:25.532Z,36.04
2023-05-14T16:12:52.608Z,36.89
2023-05-14T16:15:19.487Z,37.02
2023-05-14T16:17:46.198Z,35.99
2023-05-14T16:20:13.020Z,36.38
2023-05-14T16:22:39.868Z,36.40
2023-05-14T16:25:08.380Z,36.31
2023-05-14T16:27:35.181Z,36.37
2023-05-14T16:30:01.856Z,36.43
2023-05-14T16:32:28.562Z,35.91
2023-05-14T16:34:55.157Z,35.85
2023-05-14T16:37:21.874Z,35.48
2023-05-14T16:39:48.818Z,35.80
2023-05-14T16:42:16.953Z,35.58
2023-05-14T16:44:43.955Z,35.11
2023-05-14T16:47:11.220Z,36.44
2023-05-14T16:49:37.812Z,35.58
2023-05-14T16:52:05.957Z,35.73
2023-05-14T16:54:32.613Z,35.41
2023-05-14T16:56:59.338Z,35.42
2023-05-14T16:59:27.324Z,36.50
2023-05-14T17:01:54.107Z,36.00
2023-05-14T17:04:20.824Z,36.16
2023-05-14T17:06:47.581Z,36.35
2023-05-14T17:09:14.234Z,36.12
2023-05-14T17:11:40.981Z,35.65
2023-05-14T17:14:07.770Z,36.08
2023-05-14T17:16:35.865Z,36.79
2023-05-14T17:19:02.535Z,36.10
2023-05-14T17:21:29.323Z,36.65
2023-05-14T17:23:55.902Z,36.45
2023-05-14T17:26:23.033Z,37.00
2023-05-14T17:28:49.704Z,37.14
2023-05-14T17:31:16.337Z,37.25
2023-05-14T17:33:44.424Z,37.32
2023-05-14T17:36:11.152Z,37.47
2023-05-14T17:38:37.871Z,37.62
2023-05-14T17:41:04.695Z,37.75
2023-05-14T17:43:31.403Z,37.71
2023-05-14T17:45:58.113Z,38.20
2023-05-14T17:48:24.801Z,37.86
2023-05-14T17:50:52.791Z,38.04
2023-05-14T17:53:19.524Z,38.34
2023-05-14T17:55:46.186Z,37.98
2023-05-14T17:58:13.876Z,38.31
2023-05-14T18:00:40.781Z,38.45
2023-05-14T18:03:08.062Z,38.67
2023-05-14T18:05:34.889Z,38.49
2023-05-14T18:08:02.977Z,39.21
2023-05-14T18:10:29.720Z,39.56
2023-05-14T18:12:56.373Z,39.62
2023-05-14T18:15:23.297Z,39.60
2023-05-14T18:17:50.153Z,40.13
2023-05-14T18:20:16.999Z,40.01
2023-05-14T18:22:43.609Z,39.79
2023-05-14T18:25:11.596Z,39.86
2023-05-14T18:27:38.210Z,39.92
2023-05-14T18:30:06.070Z,40.36
2023-05-14T18:32:32.832Z,40.79
2023-05-14T18:34:59.548Z,40.95
2023-05-14T18:37:26.160Z,40.99
2023-05-14T18:39:52.837Z,41.25
2023-05-14T18:42:20.909Z,41.29
2023-05-14T18:44:47.523Z,41.62
2023-05-14T18:47:14.404Z,41.65
2023-05-14T18:49:41.066Z,41.85
2023-05-14T18:52:08.008Z,42.08
2023-05-14T18:54:34.728Z,42.52
2023-05-14T18:57:01.641Z,42.66
2023-05-14T18:59:29.684Z,42.52
2023-05-14T19:01:56.457Z,42.74
2023-05-14T19:04:23.187Z,42.99
2023-05-14T19:06:50.943Z,43.14
2023-05-14T19:09:17.705Z,43.55
2023-05-14T19:11:44.339Z,43.54
2023-05-14T19:14:10.994Z,43.69
2023-05-14T19:16:39.740Z,43.83
2023-05-14T19:19:07.136Z,44.19
2023-05-14T19:21:33.929Z,44.21
2023-05-14T19:24:00.609Z,44.46
2023-05-14T19:26:27.748Z,44.60
2023-05-14T19:28:54.340Z,44.86
2023-05-14T19:31:20.993Z,44.98
2023-05-14T19:33:49.073Z,45.12
2023-05-14T19:36:15.862Z,45.13
2023-05-14T19:38:42.441Z,45.46
2023-05-14T19:41:09.209Z,45.32
2023-05-14T19:43:35.894Z,45.83
2023-05-14T19:46:03.035Z,45.59
2023-05-14T19:48:30.537Z,45.58
2023-05-14T19:50:58.582Z,46.08
2023-05-14T19:53:25.375Z,46.16
2023-05-14T19:55:51.995Z,46.26
2023-05-14T19:58:18.613Z,46.15
2023-05-14T20:00:45.324Z,46.58
2023-05-14T20:03:11.988Z,46.64
2023-05-14T20:05:38.789Z,46.88
2023-05-14T20:08:07.020Z,47.04
2023-05-14T20:10:33.683Z,46.98
2023-05-14T20:13:00.268Z,47.19
2023-05-14T20:15:26.996Z,47.41
2023-05-14T20:17:53.772Z,48.07
2023-05-14T20:20:20.637Z,48.99
2023-05-14T20:22:47.240Z,49.08
2023-05-14T20:25:15.633Z,48.98
2023-05-14T20:27:42.466Z,49.39
2023-05-14T20:30:09.599Z,49.62
2023-05-14T20:32:36.354Z,49.67
2023-05-14T20:35:03.304Z,50.16
2023-05-14T20:37:30.494Z,50.70
2023-05-14T20:39:57.143Z,50.73
2023-05-14T20:42:25.475Z,51.29
2023-05-14T20:44:53.045Z,51.53
2023-05-14T20:47:21.202Z,51.67
2023-05-14T20:49:48.234Z,51.63
2023-05-14T20:52:14.934Z,51.83
2023-05-14T20:54:42.001Z,52.05
2023-05-14T20:57:08.821Z,52.29
2023-05-14T20:59:36.841Z,52.02
2023-05-14T21:02:03.656Z,52.57
2023-05-14T21:04:31.070Z,52.55
2023-05-14T21:06:57.866Z,52.54
2023-05-14T21:09:24.496Z,53.28
2023-05-14T21:11:51.204Z,53.98
2023-05-14T21:14:17.813Z,53.58
2023-05-14T21:16:46.182Z,54.15
2023-05-14T21:19:15.258Z,54.01
2023-05-14T21:21:42.195Z,54.44
2023-05-14T21:24:08.802Z,54.48
2023-05-14T21:26:36.324Z,54.61
2023-05-14T21:29:03.650Z,54.82
2023-05-14T21:31:30.281Z,54.81
2023-05-14T21:33:58.259Z,55.10
2023-05-14T21:36:24.993Z,55.09
2023-05-14T21:38:53.193Z,55.93
2023-05-14T21:41:19.898Z,56.19
2023-05-14T21:43:46.521Z,56.48
2023-05-14T21:46:13.400Z,56.65
2023-05-14T21:48:40.237Z,56.88
2023-05-14T21:51:08.449Z,57.01
2023-05-14T21:53:35.078Z,57.21
2023-05-14T21:56:01.667Z,57.53
2023-05-14T21:58:28.338Z,57.40
2023-05-14T22:00:55.016Z,57.47
2023-05-14T22:03:21.760Z,57.62
2023-05-14T22:05:48.470Z,57.76
2023-05-14T22:08:16.449Z,58.16
2023-05-14T22:10:43.055Z,58.24
2023-05-14T22:13:09.667Z,58.73
2023-05-14T22:15:36.265Z,58.64
2023-05-14T22:18:02.924Z,58.99
2023-05-14T22:20:29.601Z,58.90
2023-05-14T22:22:56.255Z,58.82
2023-05-14T22:25:24.423Z,59.21
2023-05-14T22:27:51.372Z,59.62
2023-05-14T22:30:17.999Z,59.71
2023-05-14T22:32:44.799Z,59.56
2023-05-14T22:35:11.473Z,59.67
2023-05-14T22:37:38.152Z,59.48
2023-05-14T22:40:05.937Z,60.06
2023-05-14T22:42:33.936Z,60.28
2023-05-14T22:45:00.549Z,60.44
2023-05-14T22:47:27.220Z,60.55
2023-05-14T22:49:53.903Z,60.88
2023-05-14T22:52:20.688Z,60.95
2023-05-14T22:54:47.288Z,61.68
2023-05-14T22:57:13.997Z,61.62
2023-05-14T22:59:42.119Z,61.87
2023-05-14T23:02:08.879Z,61.80
2023-05-14T23:04:35.654Z,62.17
2023-05-14T23:07:02.325Z,62.12
2023-05-14T23:09:28.940Z,61.93
2023-05-14T23:11:55.559Z,61.99
2023-05-14T23:14:22.175Z,62.45
2023-05-14T23:16:50.211Z,62.83
2023-05-14T23:19:16.992Z,62.68
2023-05-14T23:21:43.758Z,62.55
2023-05-14T23:24:10.431Z,62.88
2023-05-14T23:26:37.080Z,63.45
2023-05-14T23:29:03.731Z,62.86
2023-05-14T23:31:30.454Z,63.24
2023-05-14T23:33:58.510Z,63.03
2023-05-14T23:36:25.264Z,63.26
2023-05-14T23:38:51.998Z,63.92
2023-05-14T23:41:18.632Z,64.11
2023-05-14T23:43:45.248Z,64.11
2023-05-14T23:46:11.971Z,63.99
2023-05-14T23:48:38.682Z,63.82
2023-05-14T23:51:06.717Z,64.18
2023-05-14T23:53:33.374Z,64.48
2023-05-14T23:56:00.176Z,64.98
2023-05-14T23:58:26.877Z,64.68
